Flugplatz Braunschweig Wolfsburg

Bericht für EDVE

vom 11.05. um 19:50 UTC

Wind 4 kt aus 310°

Sichtweite 10 km oder mehr

gering bewölkt in 4300 ft

aufgelockert bewölkt in 5800 ft

aufgebrochene Bewölkung in 13000 ft

Temperatur 13.0°C

Taupunkt 12.0°C

Luftfeuchtigkeit 94%

Luftdruck 1007 hPa

EDVE 111950Z AUTO 31004KT 270V330 9999 // FEW043/// SCT058/// BKN130/// 13/12 Q1007

Prognose für EDVE

vom 11.05. um 17:00 UTC

Zwischen 18:00 UTC und 21:00 UTC

Wind 6 kt aus 300°

Sichtweite 10 km oder mehr

aufgebrochene Bewölkung in 2500 ft


Zwischen 18:00 UTC und 21:00 UTC zeitweise mit einer Wahrscheinlichkeit von 30%

Sichtweite 4500 m

Regen

aufgebrochene Bewölkung in 1400 ft

TAF EDVE 111700Z 1118/1121 30006KT 9999 BKN025 PROB30 TEMPO 1118/1121 4500 RA BKN014
Impressum